Estación Meteorológica Peña el Pijo (Robertgarden) [ 02/03/23 04:20:34 CET ]

Fecha Hora Presion(HPa) Temp (°C) Humedad % Rocio (°C) Viento ( m/s) Direccion Lluvia 1Hora(mm) Lluvia 24H(mm) LLuvia Total(mm)
2010-Oct-05 01:01:17 1009.100 6.5 86 4.3       1.03 161.61
2010-Oct-05 02:01:14 1009.000 6.7 87 4.7       1.03 161.61
2010-Oct-05 03:03:15 1008.800 6.3 88 4.5       1.03 161.61
2010-Oct-05 04:01:13 1008.700 6.1 88 4.3       1.03 161.61
2010-Oct-05 05:01:16 1008.600 5.3 88 3.5         161.61
2010-Oct-05 06:01:12 1008.700 5.1 89 3.4         161.61
2010-Oct-05 07:01:18 1008.800 4.2 90 2.7         161.61
2010-Oct-05 08:01:14 1008.900 4.1 90 2.6         161.61
2010-Oct-05 09:01:10 1009.100 3.8 91 2.5         161.61
2010-Oct-05 10:01:16 1009.000 10.5 88 8.6         161.61
2010-Oct-05 11:01:12 1008.900 15.9 63 8.9         161.61
2010-Oct-05 12:01:14 1008.600 19.9 46 7.9         161.61
2010-Oct-05 13:01:13 1008.300 23.4 37 7.8         161.61
2010-Oct-05 14:01:13 1007.900 24.7 31 6.5         161.61
2010-Oct-05 15:01:12 1007.300 24.9 30 6.2         161.61
2010-Oct-05 16:01:11 1006.500 25.8 28 5.8         161.61
2010-Oct-05 17:01:16 1006.200 25.8 29 6.4         161.61
2010-Oct-05 18:01:12 1006.000 22.6 34 5.8         161.61
2010-Oct-05 19:01:12 1005.900 19.1 43 6.2         161.61
2010-Oct-05 20:01:16 1006.200 16.6 48 5.5         161.61
2010-Oct-05 21:01:19 1006.800 12.9 61 5.5         161.61
2010-Oct-05 22:01:13 1007.000 10.6 69 5.2         161.61
2010-Oct-05 23:01:14 1007.600 9.2 75 5.0         161.61

Temperatura Máxima:25°    Temperatura Mínima:
Presión Máxima:1009.100 Hpa    Presión Mínima:1005.900 Hpa


Volver